Clear Lake, IA (50428)

20:52 CDT le 30 juin 2015 (GMT -0500)
KIACLEAR2 | | Change Station
CLOSE
Current Station
Stations météorologiques personnelles
Location: Clear Lake, IA
Altitude: 1263 ft
Stations météo à proximité

Alt. 1263 ft 43.13 °N, 93.38 °W | Updated 2 minutes ago

Clear
Ciel dégagé
69.0 ° F
Paraît 69.0 ° F
N
0.0
Vent Variable Vent de NNE
Gusts 2.0 mph

Aujourd'hui
Haut(e) -- | Bas -- ° F
--% Risque de précip.
Hier
Haut(e) -- | Bas -- ° F
Precip. -- pouce
5:37 AM 8:57 PM
Lune gibbeuse croissante, 99% visible
Pression 29.91 pouce
Visibilité 9.0 Miles terrestres
Nuages Ciel dégagé
Point de rosée 63 ° F
Humidité 80%
Précipitations 0.00 pouce
Profondeur de la couche neigeuse Non disponible.
UV 0 sur 12
Pollen 4.30 sur 12
Qualité de l'air Non disponible.
Flu Activity No Activity
METAR KMCW 010053Z AUTO 05005KT 9SM CLR 21/17 A2993 RMK AO2 SLP126 T02060172

More Conditions Fewer Conditions

Pression 29.91 pouce
Visibilité 9.0 Miles terrestres
Nuages Ciel dégagé
Point de rosée 63 ° F
Humidité 80%
Précipitations 0.00 pouce
Profondeur de la couche neigeuse Non disponible.
UV 0 sur 12
Pollen 4.30 sur 12
Qualité de l'air Non disponible.
Flu Activity No Activity
METAR KMCW 010053Z AUTO 05005KT 9SM CLR 21/17 A2993 RMK AO2 SLP126 T02060172

More Conditions Fewer Conditions

10-Day Weather Forecast

×

Almanac

Astronomie

Jun. 30, 2015 Lever Coucher
Temps réel
Crépuscule civil
Crépuscule nautique
Crépuscule astronomique
Lune
Durée de lumière visible
Longueur du jour
Tomorrow will be .
, % of the Moon is Illuminated

Extrêmes aujourd'hui

State Highs State Lows

Community

WunderPhotos

Upload Photos

1,834,088 Photos téléchargées !

WunderBlogs® & News

Nearby

Qualité de l'air

  Qualité de l'air Indice de la qualité de l'air Polluant
Not available.

Épaisseur de neige

Station Depth Altitude

Activité sismique

Ville Distance Mag. Time & Date
Minimum magnitude displayed is 2.5.

Températures des eaux côtières

Lieu Température

Stations

Stations météo à proximité

Emplacement de la station Température Refroidissement éolien Point de rosée Humidité Vent Precip. Alt. Mise à jour Type